createdAt,value
2022-07-25T00:00:03.988Z,36.60
2022-07-25T00:02:30.403Z,36.84
2022-07-25T00:04:56.875Z,36.71
2022-07-25T00:07:24.650Z,37.06
2022-07-25T00:09:51.048Z,36.79
2022-07-25T00:12:17.450Z,36.46
2022-07-25T00:14:43.871Z,36.51
2022-07-25T00:17:10.283Z,36.84
2022-07-25T00:19:36.695Z,37.00
2022-07-25T00:22:03.116Z,36.63
2022-07-25T00:24:29.541Z,36.88
2022-07-25T00:26:55.950Z,37.22
2022-07-25T00:29:22.365Z,37.22
2022-07-25T00:31:48.821Z,37.39
2022-07-25T00:34:15.238Z,37.21
2022-07-25T00:36:41.665Z,37.15
2022-07-25T00:39:08.064Z,37.48
2022-07-25T00:41:34.476Z,37.37
2022-07-25T00:44:00.903Z,37.85
2022-07-25T00:46:27.345Z,38.18
2022-07-25T00:48:54.197Z,38.08
2022-07-25T00:51:20.693Z,37.85
2022-07-25T00:53:47.132Z,38.07
2022-07-25T00:56:13.546Z,37.93
2022-07-25T00:58:39.973Z,38.21
2022-07-25T01:01:06.416Z,38.14
2022-07-25T01:03:32.846Z,38.17
2022-07-25T01:05:59.271Z,38.22
2022-07-25T01:08:25.687Z,38.09
2022-07-25T01:10:52.090Z,38.21
2022-07-25T01:13:18.492Z,38.11
2022-07-25T01:15:47.384Z,38.08
2022-07-25T01:18:13.857Z,38.56
2022-07-25T01:20:40.279Z,38.50
2022-07-25T01:23:06.680Z,38.49
2022-07-25T01:25:33.109Z,38.20
2022-07-25T01:27:59.506Z,37.84
2022-07-25T01:30:25.905Z,37.79
2022-07-25T01:32:52.313Z,38.07
2022-07-25T01:35:18.722Z,37.65
2022-07-25T01:37:45.472Z,37.66
2022-07-25T01:40:12.626Z,37.92
2022-07-25T01:42:39.032Z,37.89
2022-07-25T01:45:05.440Z,37.97
2022-07-25T01:47:31.849Z,37.96
2022-07-25T01:49:58.251Z,38.23
2022-07-25T01:52:24.658Z,38.11
2022-07-25T01:54:51.069Z,38.07
2022-07-25T01:57:17.878Z,38.07
2022-07-25T01:59:44.601Z,38.00
2022-07-25T02:02:11.006Z,38.06
2022-07-25T02:04:37.472Z,38.42
2022-07-25T02:07:04.003Z,38.40
2022-07-25T02:09:32.562Z,38.46
2022-07-25T02:11:58.967Z,38.34
2022-07-25T02:14:25.388Z,38.26
2022-07-25T02:16:51.813Z,38.25
2022-07-25T02:19:18.300Z,38.23
2022-07-25T02:21:44.736Z,37.91
2022-07-25T02:24:11.148Z,37.71
2022-07-25T02:26:37.590Z,37.85
2022-07-25T02:29:04.011Z,37.82
2022-07-25T02:31:30.421Z,38.24
2022-07-25T02:33:56.830Z,38.39
2022-07-25T02:36:23.236Z,38.62
2022-07-25T02:38:49.705Z,39.09
2022-07-25T02:41:16.121Z,39.31
2022-07-25T02:43:42.642Z,39.06
2022-07-25T02:46:09.092Z,38.85
2022-07-25T02:48:35.613Z,39.13
2022-07-25T02:51:02.069Z,39.10
2022-07-25T02:53:47.214Z,39.10
2022-07-25T02:56:14.888Z,39.23
2022-07-25T02:58:42.851Z,39.18
2022-07-25T03:01:09.325Z,39.12
2022-07-25T03:03:35.817Z,38.86
2022-07-25T03:06:02.241Z,38.54
2022-07-25T03:08:28.660Z,38.74
2022-07-25T03:10:55.072Z,38.70
2022-07-25T03:13:21.510Z,38.80
2022-07-25T03:15:47.926Z,39.47
2022-07-25T03:18:14.334Z,39.34
2022-07-25T03:20:41.165Z,39.55
2022-07-25T03:23:07.606Z,39.94
2022-07-25T03:25:34.000Z,40.08
2022-07-25T03:28:00.420Z,40.33
2022-07-25T03:30:26.833Z,40.33
2022-07-25T03:32:53.243Z,40.34
2022-07-25T03:35:19.653Z,40.40
2022-07-25T03:37:46.091Z,40.48
2022-07-25T03:40:12.507Z,40.55
2022-07-25T03:42:38.951Z,40.50
2022-07-25T03:45:05.360Z,40.78
2022-07-25T03:47:31.770Z,40.41
2022-07-25T03:49:58.192Z,40.41
2022-07-25T03:52:24.603Z,40.40
2022-07-25T03:54:51.005Z,40.34
2022-07-25T03:57:17.465Z,40.61
2022-07-25T03:59:43.880Z,40.98
2022-07-25T04:02:10.331Z,40.90
2022-07-25T04:04:36.760Z,41.12
2022-07-25T04:07:03.164Z,40.96
2022-07-25T04:09:31.058Z,41.14
2022-07-25T04:12:00.098Z,41.19
2022-07-25T04:14:26.522Z,41.10
2022-07-25T04:16:53.006Z,41.05
2022-07-25T04:19:22.586Z,41.20
2022-07-25T04:21:49.000Z,41.35
2022-07-25T04:24:15.427Z,41.38
2022-07-25T04:26:41.833Z,41.32
2022-07-25T04:29:08.247Z,41.07
2022-07-25T04:31:34.722Z,40.97
2022-07-25T04:34:01.190Z,41.33
2022-07-25T04:36:27.590Z,41.39
2022-07-25T04:38:54.090Z,41.05
2022-07-25T04:41:20.502Z,40.89
2022-07-25T04:43:48.870Z,41.04
2022-07-25T04:46:15.536Z,41.09
2022-07-25T04:48:42.036Z,41.23
2022-07-25T04:51:12.663Z,41.22
2022-07-25T04:53:39.075Z,41.27
2022-07-25T04:56:05.487Z,41.31
2022-07-25T04:58:32.003Z,41.13
2022-07-25T05:00:58.478Z,41.07
2022-07-25T05:03:24.909Z,41.39
2022-07-25T05:05:51.333Z,41.29
2022-07-25T05:08:17.737Z,41.20
2022-07-25T05:10:44.158Z,41.08
2022-07-25T05:13:10.570Z,41.10
2022-07-25T05:15:39.550Z,41.32
2022-07-25T05:18:05.961Z,40.90
2022-07-25T05:20:32.376Z,40.95
2022-07-25T05:22:58.795Z,41.05
2022-07-25T05:25:25.212Z,40.86
2022-07-25T05:27:51.619Z,40.71
2022-07-25T05:30:18.041Z,40.68
2022-07-25T05:32:44.453Z,40.72
2022-07-25T05:35:10.879Z,40.56
2022-07-25T05:37:37.297Z,40.57
2022-07-25T05:40:03.716Z,40.41
2022-07-25T05:42:30.221Z,40.40
2022-07-25T05:44:56.629Z,40.67
2022-07-25T05:47:23.038Z,40.73
2022-07-25T05:49:49.457Z,40.66
2022-07-25T05:52:15.857Z,40.75
2022-07-25T05:54:42.281Z,40.68
2022-07-25T05:57:08.685Z,40.77
2022-07-25T05:59:35.114Z,40.63
2022-07-25T06:02:01.731Z,40.83
2022-07-25T06:04:28.303Z,40.48
2022-07-25T06:06:54.705Z,40.43
2022-07-25T06:09:21.136Z,40.36
2022-07-25T06:11:54.358Z,40.60
2022-07-25T06:14:24.451Z,40.80
2022-07-25T06:16:51.617Z,40.70
2022-07-25T06:19:18.066Z,40.66
2022-07-25T06:21:44.489Z,40.66
2022-07-25T06:24:10.912Z,40.62
2022-07-25T06:26:37.327Z,40.67
2022-07-25T06:29:03.741Z,40.55
2022-07-25T06:31:30.195Z,40.67
2022-07-25T06:33:56.634Z,40.54
2022-07-25T06:36:23.059Z,40.63
2022-07-25T06:38:58.878Z,40.69
2022-07-25T06:41:25.294Z,40.99
2022-07-25T06:43:51.722Z,40.98
2022-07-25T06:46:18.194Z,40.94
2022-07-25T06:48:44.680Z,41.07
2022-07-25T06:51:11.190Z,41.04
2022-07-25T06:53:37.609Z,41.20
2022-07-25T06:56:04.013Z,41.18
2022-07-25T06:58:30.443Z,41.28
2022-07-25T07:00:56.940Z,41.27
2022-07-25T07:03:23.507Z,41.33
2022-07-25T07:05:49.945Z,41.43
2022-07-25T07:08:16.380Z,41.48
2022-07-25T07:10:42.807Z,41.41
2022-07-25T07:13:09.221Z,42.00
2022-07-25T07:15:35.718Z,42.38
2022-07-25T07:18:02.253Z,42.01
2022-07-25T07:20:28.674Z,42.41
2022-07-25T07:22:55.097Z,42.41
2022-07-25T07:25:23.479Z,42.11
2022-07-25T07:27:49.904Z,42.45
2022-07-25T07:30:20.834Z,43.28
2022-07-25T07:32:50.450Z,43.45
2022-07-25T07:35:16.879Z,43.55
2022-07-25T07:37:43.884Z,43.26
2022-07-25T07:40:17.890Z,43.48
2022-07-25T07:42:44.703Z,43.18
2022-07-25T07:45:11.168Z,43.07
2022-07-25T07:47:37.578Z,43.05
2022-07-25T07:50:04.003Z,43.04
2022-07-25T07:52:30.433Z,42.86
2022-07-25T07:54:59.385Z,42.64
2022-07-25T07:57:26.031Z,42.50
2022-07-25T07:59:52.471Z,42.77
2022-07-25T08:02:18.975Z,42.50
2022-07-25T08:04:45.452Z,42.43
2022-07-25T08:07:11.865Z,42.42
2022-07-25T08:09:38.304Z,42.42
2022-07-25T08:12:04.741Z,42.37
2022-07-25T08:14:31.264Z,42.01
2022-07-25T08:16:57.862Z,42.15
2022-07-25T08:19:24.299Z,42.18
2022-07-25T08:21:50.706Z,42.13
2022-07-25T08:24:17.119Z,42.03
2022-07-25T08:26:43.546Z,42.16
2022-07-25T08:29:28.041Z,42.20
2022-07-25T08:31:54.805Z,42.23
2022-07-25T08:34:21.217Z,42.60
2022-07-25T08:36:47.638Z,42.34
2022-07-25T08:39:14.064Z,42.39
2022-07-25T08:41:40.507Z,42.38
2022-07-25T08:44:07.076Z,42.28
2022-07-25T08:46:33.680Z,42.56
2022-07-25T08:49:00.195Z,42.70
2022-07-25T08:51:26.654Z,42.42
2022-07-25T08:53:53.074Z,42.38
2022-07-25T08:56:21.294Z,42.22
2022-07-25T08:58:47.986Z,42.18
2022-07-25T09:01:14.634Z,42.35
2022-07-25T09:03:41.131Z,42.25
2022-07-25T09:06:07.548Z,42.17
2022-07-25T09:08:33.977Z,42.13
2022-07-25T09:11:00.386Z,42.06
2022-07-25T09:13:26.820Z,42.02
2022-07-25T09:15:53.280Z,42.19
2022-07-25T09:18:19.715Z,42.26
2022-07-25T09:20:47.598Z,42.12
2022-07-25T09:23:14.024Z,42.16
2022-07-25T09:25:40.426Z,42.23
2022-07-25T09:28:06.853Z,42.17
2022-07-25T09:30:33.261Z,42.22
2022-07-25T09:33:00.610Z,41.91
2022-07-25T09:35:28.610Z,41.87
2022-07-25T09:37:56.562Z,41.80
2022-07-25T09:40:24.616Z,41.93
2022-07-25T09:42:52.430Z,41.74
2022-07-25T09:45:19.805Z,41.55
2022-07-25T09:47:47.108Z,41.12
2022-07-25T09:50:15.002Z,40.46
2022-07-25T09:52:41.711Z,40.41
2022-07-25T09:55:08.127Z,40.46
2022-07-25T09:57:34.554Z,40.62
2022-07-25T10:00:00.977Z,39.74
2022-07-25T10:02:27.453Z,39.58
2022-07-25T10:04:53.944Z,39.51
2022-07-25T10:07:20.373Z,39.20
2022-07-25T10:09:46.782Z,38.66
2022-07-25T10:12:13.185Z,38.68
2022-07-25T10:14:39.586Z,38.15
2022-07-25T10:17:06.164Z,38.00
2022-07-25T10:19:32.674Z,38.10
2022-07-25T10:21:59.067Z,38.31
2022-07-25T10:24:25.486Z,37.99
2022-07-25T10:26:51.902Z,38.17
2022-07-25T10:29:18.307Z,38.13
2022-07-25T10:31:50.010Z,37.77
2022-07-25T10:34:17.742Z,37.92
2022-07-25T10:36:44.145Z,37.84
2022-07-25T10:39:10.568Z,37.87
2022-07-25T10:41:36.961Z,37.81
2022-07-25T10:44:03.649Z,37.64
2022-07-25T10:46:30.333Z,37.69
2022-07-25T10:48:56.838Z,37.82
2022-07-25T10:51:23.370Z,37.70
2022-07-25T10:53:49.783Z,37.66
2022-07-25T10:56:16.215Z,37.77
2022-07-25T10:58:42.634Z,37.72
2022-07-25T11:01:09.066Z,37.73
2022-07-25T11:03:35.504Z,37.66
2022-07-25T11:06:01.939Z,37.56
2022-07-25T11:08:28.353Z,37.59
2022-07-25T11:10:54.770Z,37.47
2022-07-25T11:13:21.210Z,37.50
2022-07-25T11:15:47.623Z,37.40
2022-07-25T11:18:14.040Z,37.30
2022-07-25T11:20:40.474Z,37.27
2022-07-25T11:23:06.898Z,37.55
2022-07-25T11:25:33.306Z,36.87
2022-07-25T11:27:59.816Z,37.02
2022-07-25T11:30:26.251Z,37.24
2022-07-25T11:32:52.667Z,37.34
2022-07-25T11:35:19.096Z,37.36
2022-07-25T11:37:45.576Z,37.39
2022-07-25T11:40:12.183Z,37.46
2022-07-25T11:42:38.606Z,37.48
2022-07-25T11:45:05.033Z,37.32
2022-07-25T11:47:31.451Z,37.09
2022-07-25T11:49:57.869Z,37.06
2022-07-25T11:52:24.280Z,36.94
2022-07-25T11:54:50.686Z,36.68
2022-07-25T11:57:17.556Z,36.60
2022-07-25T11:59:43.990Z,36.60
2022-07-25T12:02:10.524Z,36.63
2022-07-25T12:04:36.989Z,36.38
2022-07-25T12:07:03.410Z,36.11
2022-07-25T12:09:29.827Z,35.93
2022-07-25T12:11:56.244Z,36.01
2022-07-25T12:14:22.644Z,35.76
2022-07-25T12:16:49.114Z,35.85
2022-07-25T12:19:15.603Z,35.87
2022-07-25T12:21:42.043Z,36.08
2022-07-25T12:24:08.458Z,36.25
2022-07-25T12:26:34.865Z,36.07
2022-07-25T12:29:01.287Z,35.81
2022-07-25T12:31:27.740Z,35.72
2022-07-25T12:33:54.195Z,35.83
2022-07-25T12:36:20.621Z,35.79
2022-07-25T12:38:47.031Z,35.72
2022-07-25T12:41:17.687Z,35.45
2022-07-25T12:43:44.456Z,35.40
2022-07-25T12:46:10.934Z,35.54
2022-07-25T12:48:37.446Z,35.27
2022-07-25T12:51:03.935Z,35.34
2022-07-25T12:53:30.336Z,35.18
2022-07-25T12:55:56.757Z,34.91
2022-07-25T12:58:23.163Z,35.21
2022-07-25T13:00:49.641Z,35.06
2022-07-25T13:03:16.118Z,34.78
2022-07-25T13:05:42.517Z,35.18
2022-07-25T13:08:08.920Z,35.16
2022-07-25T13:10:35.317Z,35.13
2022-07-25T13:13:01.726Z,35.17
2022-07-25T13:15:28.137Z,35.40
2022-07-25T13:17:54.544Z,35.51
2022-07-25T13:20:20.949Z,35.52
2022-07-25T13:22:47.366Z,35.55
2022-07-25T13:25:13.808Z,35.73
2022-07-25T13:27:40.215Z,35.94
2022-07-25T13:30:06.618Z,36.11
2022-07-25T13:32:34.209Z,36.19
2022-07-25T13:35:00.627Z,36.30
2022-07-25T13:37:27.433Z,36.33
2022-07-25T13:39:54.102Z,36.58
2022-07-25T13:42:20.692Z,36.62
2022-07-25T13:44:47.158Z,37.04
2022-07-25T13:47:13.694Z,37.04
2022-07-25T13:49:40.196Z,37.08
2022-07-25T13:52:06.716Z,37.02
2022-07-25T13:54:33.123Z,37.32
2022-07-25T13:56:59.554Z,37.24
2022-07-25T13:59:25.969Z,37.48
2022-07-25T14:01:52.408Z,37.66
2022-07-25T14:04:18.860Z,37.79
2022-07-25T14:06:45.267Z,38.14
2022-07-25T14:09:11.765Z,38.12
2022-07-25T14:11:38.217Z,38.02
2022-07-25T14:14:04.621Z,38.09
2022-07-25T14:16:31.071Z,38.03
2022-07-25T14:18:57.583Z,38.46
2022-07-25T14:21:24.002Z,38.48
2022-07-25T14:23:51.844Z,38.52
2022-07-25T14:26:18.243Z,38.67
2022-07-25T14:28:44.663Z,38.85
2022-07-25T14:31:11.098Z,38.64
2022-07-25T14:33:37.527Z,38.54
2022-07-25T14:36:03.940Z,38.58
2022-07-25T14:38:30.355Z,38.63
2022-07-25T14:40:56.773Z,38.70
2022-07-25T14:43:23.187Z,38.59
2022-07-25T14:45:49.604Z,38.52
2022-07-25T14:48:15.999Z,38.59
2022-07-25T14:50:42.412Z,38.48
2022-07-25T14:53:09.138Z,38.59
2022-07-25T14:55:35.541Z,38.53
2022-07-25T14:58:01.966Z,38.34
2022-07-25T15:00:29.644Z,38.40
2022-07-25T15:02:56.201Z,38.41
2022-07-25T15:05:22.723Z,38.32
2022-07-25T15:07:49.161Z,38.40
2022-07-25T15:10:15.571Z,38.11
2022-07-25T15:12:41.978Z,38.17
2022-07-25T15:15:08.399Z,38.32
2022-07-25T15:17:34.823Z,38.28
2022-07-25T15:20:01.533Z,38.37
2022-07-25T15:22:27.957Z,38.36
2022-07-25T15:27:40.772Z,38.29
2022-07-25T15:30:07.182Z,38.22
2022-07-25T15:32:33.610Z,38.09
2022-07-25T15:35:00.026Z,38.13
2022-07-25T15:37:26.441Z,38.20
2022-07-25T15:39:52.844Z,37.93
2022-07-25T15:42:19.249Z,37.68
2022-07-25T15:44:45.811Z,37.92
2022-07-25T15:47:12.292Z,38.03
2022-07-25T15:49:38.738Z,38.15
2022-07-25T15:52:05.152Z,38.15
2022-07-25T15:54:31.552Z,38.04
2022-07-25T15:56:57.965Z,37.92
2022-07-25T15:59:24.373Z,37.76
2022-07-25T16:01:50.792Z,37.91
2022-07-25T16:04:17.268Z,38.01
2022-07-25T16:06:43.730Z,38.06
2022-07-25T16:09:10.585Z,37.99
2022-07-25T16:11:37.165Z,37.86
2022-07-25T16:14:03.585Z,37.91
2022-07-25T16:16:30.046Z,37.88
2022-07-25T16:18:56.469Z,37.89
2022-07-25T16:21:22.886Z,37.95
2022-07-25T16:23:49.296Z,37.62
2022-07-25T16:26:15.714Z,37.60
2022-07-25T16:28:43.632Z,37.54
2022-07-25T16:31:10.118Z,37.05
2022-07-25T16:33:36.623Z,37.04
2022-07-25T16:36:03.035Z,37.09
2022-07-25T16:38:29.436Z,37.35
2022-07-25T16:40:55.850Z,37.46
2022-07-25T16:43:22.255Z,37.49
2022-07-25T16:45:48.659Z,37.58
2022-07-25T16:48:15.075Z,37.51
2022-07-25T16:50:41.483Z,37.33
2022-07-25T16:53:07.892Z,37.23
2022-07-25T16:55:34.314Z,36.96
2022-07-25T16:58:00.739Z,36.86
2022-07-25T17:00:27.177Z,36.83
2022-07-25T17:02:53.585Z,36.95
2022-07-25T17:05:20.065Z,37.15
2022-07-25T17:07:46.812Z,37.19
2022-07-25T17:10:13.233Z,37.06
2022-07-25T17:12:39.641Z,36.95
2022-07-25T17:15:06.054Z,36.85
2022-07-25T17:17:32.473Z,36.79
2022-07-25T17:20:00.208Z,37.17
2022-07-25T17:22:26.811Z,36.96
2022-07-25T17:24:53.217Z,37.20
2022-07-25T17:27:19.637Z,37.02
2022-07-25T17:29:46.052Z,37.17
2022-07-25T17:32:12.498Z,37.24
2022-07-25T17:34:38.913Z,37.63
2022-07-25T17:37:05.332Z,37.34
2022-07-25T17:39:31.850Z,37.43
2022-07-25T17:41:58.256Z,37.66
2022-07-25T17:44:24.652Z,37.60
2022-07-25T17:46:51.093Z,37.88
2022-07-25T17:49:17.620Z,37.65
2022-07-25T17:51:44.118Z,37.58
2022-07-25T17:54:10.889Z,37.89
2022-07-25T17:56:37.441Z,38.15
2022-07-25T17:59:03.843Z,37.30
2022-07-25T18:01:30.296Z,37.35
2022-07-25T18:03:56.726Z,37.63
2022-07-25T18:06:27.792Z,36.94
2022-07-25T18:08:56.244Z,36.43
2022-07-25T18:11:22.654Z,36.60
2022-07-25T18:13:49.062Z,36.99
2022-07-25T18:16:15.591Z,37.09
2022-07-25T18:18:42.111Z,37.25
2022-07-25T18:21:08.510Z,37.31
2022-07-25T18:23:34.924Z,37.28
2022-07-25T18:26:01.325Z,37.39
2022-07-25T18:28:27.743Z,37.57
2022-07-25T18:30:54.243Z,37.69
2022-07-25T18:33:20.701Z,37.61
2022-07-25T18:35:47.100Z,37.84
2022-07-25T18:38:13.518Z,37.72
2022-07-25T18:40:39.951Z,37.87
2022-07-25T18:43:08.789Z,37.93
2022-07-25T18:45:35.500Z,37.87
2022-07-25T18:48:01.919Z,38.00
2022-07-25T18:50:28.318Z,37.82
2022-07-25T18:52:54.743Z,37.69
2022-07-25T18:55:21.144Z,36.93
2022-07-25T18:57:47.544Z,37.26
2022-07-25T19:00:13.956Z,37.47
2022-07-25T19:02:40.372Z,37.33
2022-07-25T19:05:06.807Z,36.90
2022-07-25T19:07:33.277Z,37.10
2022-07-25T19:09:59.698Z,36.11
2022-07-25T19:12:26.092Z,35.40
2022-07-25T19:14:52.505Z,35.55
2022-07-25T19:17:18.915Z,34.35
2022-07-25T19:19:45.343Z,34.12
2022-07-25T19:22:11.739Z,35.47
2022-07-25T19:24:38.160Z,36.61
2022-07-25T19:27:04.556Z,36.83
2022-07-25T19:29:30.956Z,36.47
2022-07-25T19:31:57.389Z,36.52
2022-07-25T19:34:23.797Z,36.79
2022-07-25T19:36:50.214Z,36.54
2022-07-25T19:39:16.718Z,37.21
2022-07-25T19:41:46.677Z,37.12
2022-07-25T19:44:13.641Z,37.28
2022-07-25T19:46:40.206Z,36.51
2022-07-25T19:49:06.756Z,36.28
2022-07-25T19:51:33.212Z,36.25
2022-07-25T19:53:59.628Z,36.02
2022-07-25T19:56:26.034Z,36.52
2022-07-25T19:58:52.444Z,36.53
2022-07-25T20:01:18.903Z,36.18
2022-07-25T20:03:45.350Z,36.03
2022-07-25T20:06:11.751Z,34.46
2022-07-25T20:08:38.176Z,34.17
2022-07-25T20:11:04.586Z,34.60
2022-07-25T20:13:30.985Z,34.72
2022-07-25T20:15:57.410Z,34.24
2022-07-25T20:18:23.817Z,34.53
2022-07-25T20:20:50.239Z,34.32
2022-07-25T20:23:16.729Z,34.11
2022-07-25T20:25:43.155Z,34.57
2022-07-25T20:28:09.578Z,35.00
2022-07-25T20:30:36.055Z,35.24
2022-07-25T20:33:05.549Z,35.09
2022-07-25T20:35:35.508Z,35.28
2022-07-25T20:38:01.921Z,35.30
2022-07-25T20:40:28.719Z,35.52
2022-07-25T20:42:55.129Z,35.64
2022-07-25T20:45:21.530Z,35.95
2022-07-25T20:47:47.926Z,36.18
2022-07-25T20:50:14.344Z,36.13
2022-07-25T20:52:40.745Z,36.07
2022-07-25T20:55:07.155Z,36.12
2022-07-25T20:57:33.563Z,36.59
2022-07-25T21:00:00.043Z,37.01
2022-07-25T21:02:26.498Z,37.10
2022-07-25T21:04:52.965Z,36.93
2022-07-25T21:07:19.370Z,36.93
2022-07-25T21:09:45.782Z,36.86
2022-07-25T21:12:12.193Z,36.91
2022-07-25T21:14:38.602Z,36.82
2022-07-25T21:17:05.142Z,36.71
2022-07-25T21:19:31.619Z,36.66
2022-07-25T21:21:58.029Z,35.66
2022-07-25T21:24:24.442Z,34.84
2022-07-25T21:26:50.846Z,35.50
2022-07-25T21:29:17.265Z,36.03
2022-07-25T21:31:43.758Z,36.83
2022-07-25T21:34:10.261Z,36.85
2022-07-25T21:36:36.662Z,35.35
2022-07-25T21:39:03.086Z,35.40
2022-07-25T21:41:29.486Z,34.21
2022-07-25T21:43:55.895Z,33.93
2022-07-25T21:46:22.394Z,34.09
2022-07-25T21:48:48.919Z,33.57
2022-07-25T21:51:19.124Z,33.19
2022-07-25T21:53:49.618Z,33.21
2022-07-25T21:56:16.041Z,32.92
2022-07-25T21:58:42.476Z,32.97
2022-07-25T22:01:08.963Z,32.69
2022-07-25T22:03:35.422Z,32.45
2022-07-25T22:06:01.860Z,32.67
2022-07-25T22:08:28.262Z,32.50
2022-07-25T22:10:54.665Z,32.58
2022-07-25T22:13:21.309Z,32.81
2022-07-25T22:15:47.708Z,32.69
2022-07-25T22:18:14.126Z,32.96
2022-07-25T22:20:40.524Z,32.96
2022-07-25T22:23:06.930Z,32.71
2022-07-25T22:25:33.435Z,33.13
2022-07-25T22:27:59.838Z,33.37
2022-07-25T22:30:26.255Z,33.27
2022-07-25T22:32:52.665Z,33.46
2022-07-25T22:35:19.071Z,33.82
2022-07-25T22:37:45.485Z,33.96
2022-07-25T22:40:11.912Z,33.87
2022-07-25T22:42:38.322Z,34.19
2022-07-25T22:45:04.721Z,34.30
2022-07-25T22:47:31.145Z,34.05
2022-07-25T22:49:57.561Z,33.99
2022-07-25T22:52:23.966Z,33.83
2022-07-25T22:54:50.378Z,33.97
2022-07-25T22:57:16.885Z,34.05
2022-07-25T22:59:43.300Z,34.10
2022-07-25T23:02:09.714Z,34.36
2022-07-25T23:04:36.191Z,34.04
2022-07-25T23:07:02.667Z,34.20
2022-07-25T23:09:33.795Z,34.37
2022-07-25T23:12:03.026Z,34.15
2022-07-25T23:14:29.450Z,34.02
2022-07-25T23:16:55.919Z,34.04
2022-07-25T23:19:22.512Z,34.21
2022-07-25T23:21:48.998Z,34.38
2022-07-25T23:24:15.430Z,34.32
2022-07-25T23:26:41.842Z,34.60
2022-07-25T23:29:08.530Z,34.57
2022-07-25T23:31:35.397Z,34.87
2022-07-25T23:34:01.858Z,34.95
2022-07-25T23:36:28.256Z,34.94
2022-07-25T23:38:54.673Z,34.81
2022-07-25T23:41:21.083Z,34.63
2022-07-25T23:43:57.128Z,34.78
2022-07-25T23:46:29.338Z,34.93
2022-07-25T23:48:57.400Z,35.10
2022-07-25T23:51:23.880Z,34.97
2022-07-25T23:53:50.294Z,35.25
2022-07-25T23:56:20.813Z,35.21
2022-07-25T23:58:47.712Z,35.55
